Time;durP1;ratioP1;P1;durP2;ratioP2;P2;SDS_P1;SDS_P2;PMS_P1;PMS_P2;Temp;Humidity;BMP_temperature;BMP_pressure;BME280_temperature;BME280_humidity;BME280_pressure;Samples;Min_cycle;Max_cycle;Signal;HPM_P1;HPM_P2
2023/01/18 00:01:11;;;;;;;26.63;11.27;;;-2.20;99.90;;;;;;5033941;28;20439;-46
2023/01/18 00:03:38;;;;;;;29.30;11.90;;;-2.10;99.90;;;;;;5033513;28;20025;-46
2023/01/18 00:06:06;;;;;;;25.77;11.50;;;-2.10;99.90;;;;;;5033595;28;20069;-47
2023/01/18 00:08:33;;;;;;;29.83;10.60;;;-2.10;99.90;;;;;;5033204;28;20777;-50
2023/01/18 00:11:04;;;;;;;25.13;11.00;;;-2.10;99.90;;;;;;5033433;28;20434;-46
2023/01/18 00:13:29;;;;;;;27.63;10.93;;;-2.00;99.90;;;;;;5033004;28;20436;-47
2023/01/18 00:16:01;;;;;;;29.23;11.03;;;-2.00;99.90;;;;;;5033425;28;20828;-47
2023/01/18 00:18:27;;;;;;;23.33;10.27;;;-2.00;99.90;;;;;;5033051;28;20060;-52
2023/01/18 00:20:53;;;;;;;26.27;11.10;;;-2.00;99.90;;;;;;5033257;28;20466;-48
2023/01/18 00:23:18;;;;;;;23.50;11.37;;;-2.00;99.90;;;;;;5032920;28;20125;-46
2023/01/18 00:25:44;;;;;;;27.40;10.80;;;-1.90;99.90;;;;;;5033143;28;20030;-48
2023/01/18 00:28:10;;;;;;;24.27;10.50;;;-2.00;99.90;;;;;;5031959;28;20500;-50
2023/01/18 00:30:36;;;;;;;22.73;11.23;;;-2.00;99.90;;;;;;5033081;28;20025;-46
2023/01/18 00:33:01;;;;;;;24.30;10.37;;;-2.00;99.90;;;;;;5032767;28;21043;-48
2023/01/18 00:35:27;;;;;;;23.53;10.03;;;-2.00;99.90;;;;;;5033170;28;20040;-48
2023/01/18 00:37:53;;;;;;;27.10;10.13;;;-2.10;99.90;;;;;;5033148;28;20025;-45
2023/01/18 00:40:20;;;;;;;19.33;9.67;;;-2.20;99.90;;;;;;5032833;28;20033;-47
2023/01/18 00:45:30;;;;;;;24.63;10.73;;;-2.30;99.90;;;;;;5032675;28;20036;-48
2023/01/18 00:47:57;;;;;;;25.13;9.73;;;-2.30;99.90;;;;;;5032564;28;20956;-47
2023/01/18 00:50:23;;;;;;;19.90;10.13;;;-2.30;99.90;;;;;;5032653;28;20496;-47
2023/01/18 00:52:49;;;;;;;27.20;10.83;;;-2.40;99.90;;;;;;5032356;28;20507;-46
2023/01/18 00:55:16;;;;;;;22.43;10.07;;;-2.50;99.90;;;;;;5032396;28;20416;-46
2023/01/18 00:57:42;;;;;;;24.63;10.70;;;-2.50;99.90;;;;;;5032382;28;20435;-49
2023/01/18 01:00:14;;;;;;;31.50;12.00;;;-2.50;99.90;;;;;;5032379;28;20955;-47
2023/01/18 01:02:40;;;;;;;22.67;10.20;;;-2.50;99.90;;;;;;5032402;28;20439;-47
2023/01/18 01:07:58;;;;;;;24.20;10.23;;;-2.50;99.90;;;;;;5032418;28;20486;-47
2023/01/18 01:10:24;;;;;;;24.23;10.93;;;-2.60;99.90;;;;;;5032328;28;20440;-49
2023/01/18 01:26:33;;;;;;;30.97;11.53;;;-2.80;99.90;;;;;;5031726;28;20489;-46
2023/01/18 01:28:59;;;;;;;25.37;11.20;;;-2.70;99.90;;;;;;5031968;28;20420;-48
2023/01/18 01:31:24;;;;;;;25.47;11.43;;;-2.80;99.90;;;;;;5031751;28;20821;-48
2023/01/18 01:33:51;;;;;;;24.00;10.27;;;-2.80;99.90;;;;;;5031658;28;20065;-49
2023/01/18 01:36:26;;;;;;;24.83;11.13;;;-2.70;99.90;;;;;;5031825;28;20386;-48
2023/01/18 01:38:53;;;;;;;21.23;11.17;;;-2.60;99.90;;;;;;5031623;28;20419;-47
2023/01/18 01:41:25;;;;;;;27.03;10.87;;;-2.60;99.90;;;;;;5031773;28;20424;-47
2023/01/18 01:43:54;;;;;;;23.20;10.60;;;-2.60;99.90;;;;;;5031427;28;20821;-48
2023/01/18 01:46:29;;;;;;;24.73;10.68;;;-2.60;99.90;;;;;;5031509;28;20440;-51
2023/01/18 01:49:31;;;;;;;37.93;12.63;;;-2.60;99.90;;;;;;5031552;28;20026;-50
2023/01/18 01:52:07;;;;;;;25.27;10.20;;;-2.60;99.90;;;;;;5031509;28;20452;-46
2023/01/18 01:54:52;;;;;;;27.17;10.83;;;-2.70;99.90;;;;;;5031499;28;20428;-46
2023/01/18 01:57:28;;;;;;;18.87;10.57;;;-2.70;99.90;;;;;;5031304;28;20539;-49
2023/01/18 02:00:09;;;;;;;28.53;11.50;;;-2.80;99.90;;;;;;5031455;28;20648;-49
2023/01/18 02:02:40;;;;;;;23.93;10.87;;;-2.80;99.90;;;;;;5031398;28;20458;-48
2023/01/18 02:05:11;;;;;;;19.10;9.73;;;-2.80;99.90;;;;;;5031183;28;20423;-47
2023/01/18 02:07:37;;;;;;;28.70;10.03;;;-2.80;99.90;;;;;;5031078;28;20972;-46
2023/01/18 02:10:04;;;;;;;26.70;10.80;;;-2.90;99.90;;;;;;5031132;28;20444;-48
2023/01/18 02:12:31;;;;;;;24.87;10.83;;;-2.90;99.90;;;;;;5031111;28;20068;-51
2023/01/18 02:14:58;;;;;;;25.93;10.43;;;-2.90;99.90;;;;;;5031018;28;20840;-47
2023/01/18 02:17:54;;;;;;;26.47;9.77;;;-2.80;99.90;;;;;;5030920;28;20467;-51
2023/01/18 02:20:46;;;;;;;23.63;10.27;;;-2.70;99.90;;;;;;5031162;28;20515;-50
2023/01/18 02:23:33;;;;;;;25.20;10.83;;;-2.80;99.90;;;;;;5030989;28;20543;-47
2023/01/18 02:26:30;;;;;;;23.90;10.63;;;-2.90;99.90;;;;;;5031035;28;20420;-51
2023/01/18 02:29:39;;;;;;;24.30;10.90;;;-2.80;99.90;;;;;;5030844;28;20424;-46
2023/01/18 02:32:49;;;;;;;22.08;9.88;;;-2.90;99.90;;;;;;4993585;28;20487;-46
2023/01/18 02:35:37;;;;;;;23.80;9.70;;;-2.90;99.90;;;;;;5030647;28;20036;-48
2023/01/18 02:38:11;;;;;;;22.30;9.90;;;-2.80;99.90;;;;;;5030916;28;20420;-48
2023/01/18 02:40:37;;;;;;;21.90;10.43;;;-2.80;99.90;;;;;;5030876;28;20813;-46
2023/01/18 02:48:41;;;;;;;23.13;10.70;;;-2.70;99.90;;;;;;5030800;28;20800;-47
2023/01/18 02:51:07;;;;;;;19.97;10.13;;;-2.70;99.90;;;;;;5031490;28;20459;-48
2023/01/18 02:53:41;;;;;;;24.13;10.40;;;-2.70;99.90;;;;;;5034707;28;20479;-48
2023/01/18 02:56:12;;;;;;;25.50;10.57;;;-2.60;99.90;;;;;;5035084;28;20483;-49
2023/01/18 02:58:46;;;;;;;28.87;10.67;;;-2.60;99.90;;;;;;5034661;28;20423;-47
2023/01/18 03:01:39;;;;;;;25.23;11.37;;;-2.70;99.90;;;;;;5034713;28;20959;-48
2023/01/18 03:04:13;;;;;;;25.63;11.53;;;-2.70;99.90;;;;;;5034404;28;20558;-52
2023/01/18 03:06:45;;;;;;;26.30;11.60;;;-2.70;99.90;;;;;;5034511;28;20823;-48
2023/01/18 03:09:20;;;;;;;29.73;11.07;;;-2.70;99.90;;;;;;5034620;28;20424;-50
2023/01/18 03:12:21;;;;;;;29.73;11.83;;;-2.70;99.90;;;;;;5034504;28;20452;-50
2023/01/18 03:14:57;;;;;;;28.13;12.07;;;-2.70;99.90;;;;;;5028755;28;20448;-48
2023/01/18 03:17:22;;;;;;;31.87;12.53;;;-2.70;99.90;;;;;;5034307;28;20431;-50
2023/01/18 03:20:08;;;;;;;32.80;12.77;;;-2.70;99.90;;;;;;5034299;28;20531;-50
2023/01/18 03:25:25;;;;;;;;;;;-2.80;99.90;;;;;;5034663;28;20987;-49
2023/01/18 03:33:43;;;;;;;28.87;11.20;;;-3.00;99.90;;;;;;5033960;28;20506;-47
2023/01/18 03:36:30;;;;;;;24.10;11.50;;;-3.00;99.90;;;;;;5034383;28;20424;-47
2023/01/18 03:39:06;;;;;;;23.97;11.40;;;-3.00;99.90;;;;;;5033979;28;20956;-51
2023/01/18 03:41:37;;;;;;;26.50;12.03;;;-2.90;99.90;;;;;;5033924;28;20539;-50
2023/01/18 03:44:09;;;;;;;26.13;12.33;;;-2.90;99.90;;;;;;5034099;28;20451;-46
2023/01/18 03:46:36;;;;;;;26.20;11.40;;;-2.90;99.90;;;;;;5033928;28;20972;-47
2023/01/18 03:49:02;;;;;;;31.10;12.07;;;-2.90;99.90;;;;;;5033714;28;20444;-51
2023/01/18 03:51:46;;;;;;;28.57;12.30;;;-2.80;99.90;;;;;;5033731;28;20463;-52
2023/01/18 03:54:43;;;;;;;27.07;12.90;;;-2.90;99.90;;;;;;5033487;28;20115;-50
2023/01/18 03:57:13;;;;;;;26.50;11.73;;;-3.00;99.90;;;;;;5033542;28;20431;-47
2023/01/18 03:59:39;;;;;;;29.13;12.73;;;-3.00;99.90;;;;;;5033764;28;20435;-49
2023/01/18 04:02:07;;;;;;;27.70;12.10;;;-3.00;99.90;;;;;;5033134;28;20450;-51
2023/01/18 04:04:33;;;;;;;31.40;13.43;;;-2.90;99.90;;;;;;5032588;28;20470;-48
2023/01/18 04:06:59;;;;;;;29.90;13.70;;;-2.90;99.90;;;;;;5033555;28;20824;-46
2023/01/18 04:09:25;;;;;;;32.77;13.00;;;-2.90;99.90;;;;;;5033473;28;20420;-49
2023/01/18 04:11:51;;;;;;;26.23;12.03;;;-3.00;99.90;;;;;;5033208;28;20053;-49
2023/01/18 04:14:17;;;;;;;27.17;12.73;;;-3.00;99.90;;;;;;5033009;28;20428;-50
2023/01/18 04:16:43;;;;;;;31.37;12.70;;;-2.90;99.90;;;;;;5033153;28;20443;-48
2023/01/18 04:19:09;;;;;;;30.90;13.20;;;-2.90;99.90;;;;;;5033056;28;20066;-46
2023/01/18 04:21:35;;;;;;;29.60;13.13;;;-2.90;99.90;;;;;;5033406;28;20041;-49
2023/01/18 04:24:01;;;;;;;23.93;12.13;;;-3.00;99.90;;;;;;5032726;28;20549;-49
2023/01/18 04:26:28;;;;;;;28.40;13.17;;;-3.00;99.90;;;;;;5032707;28;20514;-51
2023/01/18 04:28:54;;;;;;;30.13;13.33;;;-3.10;99.90;;;;;;5032934;28;20033;-48
2023/01/18 04:31:20;;;;;;;33.47;13.40;;;-3.10;99.90;;;;;;5033014;28;20555;-49
2023/01/18 04:33:50;;;;;;;28.07;13.43;;;-3.10;99.90;;;;;;5033134;28;20033;-49
2023/01/18 04:36:17;;;;;;;31.25;14.02;;;-3.10;99.90;;;;;;5032924;28;20459;-49
2023/01/18 04:38:42;;;;;;;29.37;13.23;;;-3.00;99.90;;;;;;5032844;28;20076;-50
2023/01/18 04:41:08;;;;;;;29.23;13.17;;;-3.00;99.90;;;;;;5032824;28;20951;-49
2023/01/18 04:43:34;;;;;;;32.47;12.77;;;-3.00;99.90;;;;;;5032446;28;20029;-46
2023/01/18 04:45:59;;;;;;;32.40;13.70;;;-2.90;99.90;;;;;;5032598;28;20032;-46
2023/01/18 04:48:25;;;;;;;29.10;11.97;;;-2.90;99.90;;;;;;5032393;28;20033;-48
2023/01/18 04:50:51;;;;;;;31.53;12.90;;;-2.90;99.90;;;;;;5032592;28;20544;-50
2023/01/18 04:53:17;;;;;;;30.70;13.40;;;-3.00;99.90;;;;;;5032312;28;20524;-48
2023/01/18 04:55:44;;;;;;;25.27;12.10;;;-3.00;99.90;;;;;;5032577;28;20030;-49
2023/01/18 04:58:09;;;;;;;28.07;14.07;;;-3.10;99.90;;;;;;5032180;28;20502;-49
2023/01/18 05:00:38;;;;;;;27.13;13.07;;;-3.20;99.90;;;;;;5032216;28;20440;-49
2023/01/18 05:03:09;;;;;;;24.25;10.13;;;-3.20;99.90;;;;;;5032086;28;20036;-50
2023/01/18 05:05:35;;;;;;;27.20;13.43;;;-3.20;99.90;;;;;;5032271;28;20395;-48
2023/01/18 05:08:01;;;;;;;44.97;19.63;;;-3.20;99.90;;;;;;5031937;28;20539;-51
2023/01/18 05:10:27;;;;;;;46.77;21.60;;;-3.20;99.90;;;;;;5032083;28;20036;-48
2023/01/18 05:12:52;;;;;;;69.57;32.30;;;-3.20;99.90;;;;;;5031910;28;20041;-47
2023/01/18 05:15:18;;;;;;;125.90;76.27;;;-3.20;99.90;;;;;;5031357;28;20037;-47
2023/01/18 05:17:44;;;;;;;152.67;95.03;;;-3.30;99.90;;;;;;5031838;28;20549;-50
2023/01/18 05:20:11;;;;;;;116.37;65.23;;;-3.20;99.90;;;;;;5031840;28;20424;-47
2023/01/18 05:22:37;;;;;;;67.67;36.63;;;-3.20;99.90;;;;;;5031686;28;20041;-49
2023/01/18 05:25:04;;;;;;;72.57;38.90;;;-3.30;99.90;;;;;;5031529;28;20450;-46
2023/01/18 05:27:29;;;;;;;87.13;48.00;;;-3.20;99.90;;;;;;5031677;28;20401;-48
2023/01/18 05:29:55;;;;;;;76.90;43.63;;;-3.20;99.90;;;;;;5031643;28;20428;-47
2023/01/18 05:32:21;;;;;;;68.97;38.27;;;-3.10;99.90;;;;;;5031428;28;20490;-52
2023/01/18 05:34:46;;;;;;;63.80;34.40;;;-3.10;99.90;;;;;;5031455;28;20035;-47
2023/01/18 05:37:12;;;;;;;56.17;29.67;;;-3.00;99.90;;;;;;5031336;28;20036;-51
2023/01/18 05:39:38;;;;;;;54.20;27.73;;;-3.10;99.90;;;;;;5031458;28;20033;-45
2023/01/18 05:42:04;;;;;;;46.80;24.20;;;-3.10;99.90;;;;;;5031443;28;20030;-47
2023/01/18 05:44:30;;;;;;;45.87;23.87;;;-3.00;99.90;;;;;;5031686;28;20536;-50
2023/01/18 05:46:57;;;;;;;33.97;14.80;;;-3.00;99.90;;;;;;5031128;28;20437;-47
2023/01/18 05:49:23;;;;;;;27.90;14.70;;;-2.90;99.90;;;;;;5031336;28;20030;-50
2023/01/18 05:51:49;;;;;;;30.60;13.77;;;-2.90;99.90;;;;;;5031329;28;20538;-49
2023/01/18 05:54:15;;;;;;;29.20;14.30;;;-2.80;99.90;;;;;;5030958;28;20104;-50
2023/01/18 05:56:41;;;;;;;33.67;14.70;;;-2.80;99.90;;;;;;5031038;28;21048;-49
2023/01/18 05:59:07;;;;;;;31.77;13.57;;;-2.80;99.90;;;;;;5031081;28;20083;-51
2023/01/18 06:01:33;;;;;;;31.13;15.20;;;-2.80;99.90;;;;;;5031124;28;20116;-48
2023/01/18 06:03:59;;;;;;;30.00;15.13;;;-2.80;99.90;;;;;;5030962;28;20444;-48
2023/01/18 06:06:25;;;;;;;27.97;14.30;;;-2.70;99.90;;;;;;5030933;28;20455;-47
2023/01/18 06:08:50;;;;;;;28.37;13.27;;;-2.70;99.90;;;;;;5030938;28;20084;-46
2023/01/18 06:11:16;;;;;;;29.03;14.53;;;-2.70;99.90;;;;;;5030735;28;20171;-49
2023/01/18 06:13:42;;;;;;;31.07;14.30;;;-2.80;99.90;;;;;;5030498;28;20026;-45
2023/01/18 06:16:08;;;;;;;27.80;14.57;;;-2.80;99.90;;;;;;5030874;28;20037;-49
2023/01/18 06:18:34;;;;;;;35.17;14.33;;;-2.80;99.90;;;;;;5030545;28;20115;-51
2023/01/18 06:21:01;;;;;;;30.97;14.90;;;-2.80;99.90;;;;;;5030901;28;20460;-49
2023/01/18 06:23:28;;;;;;;33.63;14.80;;;-2.80;99.90;;;;;;5030399;28;20124;-45
2023/01/18 06:25:54;;;;;;;31.93;15.13;;;-2.80;99.90;;;;;;5029996;28;20443;-46
2023/01/18 06:28:21;;;;;;;30.00;14.57;;;-2.90;99.90;;;;;;5030539;28;20944;-46
2023/01/18 06:30:47;;;;;;;32.10;15.13;;;-2.90;99.90;;;;;;5030802;28;20029;-49
2023/01/18 06:33:16;;;;;;;27.87;13.73;;;-2.90;99.90;;;;;;5030526;28;21038;-46
2023/01/18 06:35:42;;;;;;;34.83;14.93;;;-2.90;99.90;;;;;;5030460;28;20106;-47
2023/01/18 06:38:09;;;;;;;31.00;14.93;;;-2.90;99.90;;;;;;5030319;28;20048;-49
2023/01/18 06:40:35;;;;;;;30.90;14.67;;;-2.80;99.90;;;;;;5030516;28;20416;-47
2023/01/18 06:43:01;;;;;;;28.30;13.70;;;-2.80;99.90;;;;;;5030361;28;20966;-50
2023/01/18 06:45:28;;;;;;;29.70;13.50;;;-2.80;99.90;;;;;;5030381;28;20490;-47
2023/01/18 06:47:54;;;;;;;30.80;15.27;;;-2.80;99.90;;;;;;5030353;28;20022;-48
2023/01/18 06:50:21;;;;;;;29.60;14.73;;;-2.80;99.90;;;;;;5030538;28;20436;-48
2023/01/18 06:52:47;;;;;;;36.07;15.87;;;-2.80;99.90;;;;;;5030247;28;20463;-45
2023/01/18 06:55:14;;;;;;;29.17;14.20;;;-2.70;99.90;;;;;;5030114;28;20459;-47
2023/01/18 06:57:40;;;;;;;30.87;14.37;;;-2.70;99.90;;;;;;5030163;28;20108;-48
2023/01/18 07:00:08;;;;;;;31.40;14.57;;;-2.60;99.90;;;;;;5030415;28;20841;-50
2023/01/18 07:02:34;;;;;;;29.70;13.70;;;-2.60;99.90;;;;;;5030332;28;20559;-50
2023/01/18 07:05:04;;;;;;;32.77;14.27;;;-2.60;99.90;;;;;;5030146;28;20758;-48
2023/01/18 07:07:30;;;;;;;28.87;14.90;;;-2.60;99.90;;;;;;5029961;28;20460;-50
2023/01/18 07:09:56;;;;;;;29.37;14.23;;;-2.60;99.90;;;;;;5030133;28;20427;-51
2023/01/18 07:12:22;;;;;;;30.60;14.73;;;-2.70;99.90;;;;;;5029998;28;20570;-49
2023/01/18 07:14:47;;;;;;;30.20;15.73;;;-2.60;99.90;;;;;;5029948;28;20401;-49
2023/01/18 07:17:14;;;;;;;35.63;14.83;;;-2.60;99.90;;;;;;5029814;28;20029;-45
2023/01/18 07:19:39;;;;;;;29.07;13.63;;;-2.50;99.90;;;;;;5030291;28;20112;-50
2023/01/18 07:22:05;;;;;;;30.87;13.87;;;-2.40;99.90;;;;;;5030046;28;20583;-48
2023/01/18 07:24:31;;;;;;;33.03;14.00;;;-2.40;99.90;;;;;;5029751;28;20060;-48
2023/01/18 07:27:00;;;;;;;30.30;13.10;;;-2.50;99.90;;;;;;5030370;28;20039;-46
2023/01/18 07:29:26;;;;;;;34.45;15.10;;;-2.40;99.90;;;;;;5030243;28;20108;-52
2023/01/18 07:31:52;;;;;;;30.87;14.67;;;-2.40;99.90;;;;;;5029929;28;20033;-49
2023/01/18 07:34:18;;;;;;;28.50;14.20;;;-2.40;99.90;;;;;;5029690;28;20521;-50
2023/01/18 07:36:44;;;;;;;29.07;13.87;;;-2.40;99.90;;;;;;5029878;28;20459;-49
2023/01/18 07:39:10;;;;;;;28.33;13.43;;;-2.40;99.90;;;;;;5033524;28;20022;-48
2023/01/18 07:41:36;;;;;;;27.40;14.90;;;-2.40;99.90;;;;;;5033774;28;20246;-48
2023/01/18 07:44:02;;;;;;;28.00;14.63;;;-2.40;99.90;;;;;;5033413;28;20982;-47
2023/01/18 07:46:28;;;;;;;27.60;14.77;;;-2.40;99.90;;;;;;5033519;28;20402;-47
2023/01/18 07:48:54;;;;;;;27.30;14.13;;;-2.40;99.90;;;;;;5033349;28;20543;-48
2023/01/18 07:51:21;;;;;;;33.33;15.97;;;-2.40;99.90;;;;;;5033325;28;20037;-49
2023/01/18 07:53:47;;;;;;;31.30;14.13;;;-2.40;99.90;;;;;;5033032;28;20088;-45
2023/01/18 07:56:16;;;;;;;29.33;14.93;;;-2.40;99.90;;;;;;5033422;28;20790;-47
2023/01/18 07:58:43;;;;;;;;;;;-2.40;99.90;;;;;;5033690;28;20029;-49
2023/01/18 08:01:11;;;;;;;32.50;14.80;;;-2.30;99.90;;;;;;5033323;28;19996;-50
2023/01/18 08:03:37;;;;;;;30.80;14.57;;;-2.30;99.90;;;;;;5033004;28;20539;-48
2023/01/18 08:06:06;;;;;;;35.20;15.00;;;-2.30;99.90;;;;;;5033638;28;20535;-46
2023/01/18 08:08:32;;;;;;;32.23;15.57;;;-2.20;99.90;;;;;;5032734;28;20432;-47
2023/01/18 08:11:00;;;;;;;32.70;15.00;;;-2.20;99.90;;;;;;5033163;28;20443;-47
2023/01/18 08:13:26;;;;;;;35.40;16.03;;;-2.20;99.90;;;;;;5032815;28;20686;-49
2023/01/18 08:15:53;;;;;;;32.57;15.87;;;-2.20;99.90;;;;;;5033114;28;20531;-48
2023/01/18 08:18:18;;;;;;;27.00;14.50;;;-2.10;99.90;;;;;;5032685;28;20764;-47
2023/01/18 08:20:45;;;;;;;30.07;14.97;;;-2.10;99.90;;;;;;5032827;28;20036;-49
2023/01/18 08:23:11;;;;;;;31.87;15.20;;;-2.00;99.90;;;;;;5032747;28;20414;-46
2023/01/18 08:25:37;;;;;;;37.90;16.83;;;-2.00;99.90;;;;;;5032880;28;20436;-48
2023/01/18 08:28:04;;;;;;;36.33;16.67;;;-2.00;99.90;;;;;;5032682;28;20025;-48
2023/01/18 08:30:33;;;;;;;37.83;17.10;;;-2.00;99.90;;;;;;5033112;28;20032;-50
2023/01/18 08:33:00;;;;;;;35.75;16.70;;;-2.00;99.90;;;;;;5032594;28;20041;-49
2023/01/18 08:35:28;;;;;;;31.07;16.10;;;-1.90;99.90;;;;;;5032369;28;20025;-46
2023/01/18 08:37:55;;;;;;;37.27;16.17;;;-1.90;99.90;;;;;;5032492;28;20061;-47
2023/01/18 08:40:22;;;;;;;34.13;16.13;;;-1.90;99.90;;;;;;5032547;28;20037;-48
2023/01/18 08:42:48;;;;;;;33.60;16.23;;;-1.90;99.90;;;;;;5032501;28;20037;-49
2023/01/18 08:45:14;;;;;;;33.80;15.23;;;-1.80;99.90;;;;;;5032710;28;20436;-49
2023/01/18 08:47:40;;;;;;;36.67;16.77;;;-1.70;99.90;;;;;;5032275;28;20088;-49
2023/01/18 08:50:08;;;;;;;30.97;16.23;;;-1.70;99.90;;;;;;5031562;28;20478;-50
2023/01/18 08:52:34;;;;;;;31.50;15.97;;;-1.70;99.90;;;;;;5032342;28;20037;-49
2023/01/18 08:55:04;;;;;;;37.13;17.17;;;-1.60;99.90;;;;;;5032135;28;20117;-50
2023/01/18 08:57:29;;;;;;;;;;;-1.60;99.90;;;;;;5032712;28;20029;-50
2023/01/18 08:59:55;;;;;;;39.47;18.43;;;-1.60;99.90;;;;;;5032207;28;19916;-50
2023/01/18 09:02:24;;;;;;;36.77;17.37;;;-1.50;99.90;;;;;;5032131;28;20037;-52
2023/01/18 09:04:50;;;;;;;30.10;15.15;;;-1.50;99.90;;;;;;5031863;28;20029;-51
2023/01/18 09:07:16;;;;;;;29.83;14.87;;;-1.30;99.90;;;;;;5031873;28;20033;-48
2023/01/18 09:09:43;;;;;;;33.93;15.63;;;-1.10;99.90;;;;;;5032079;28;20034;-49
2023/01/18 09:12:10;;;;;;;29.53;15.43;;;-1.00;99.90;;;;;;5031793;28;20471;-48
2023/01/18 09:14:36;;;;;;;29.30;15.67;;;-0.90;99.90;;;;;;5031734;28;20391;-50
2023/01/18 09:17:02;;;;;;;37.03;15.03;;;-0.80;99.90;;;;;;5031586;28;20021;-49
2023/01/18 09:19:28;;;;;;;25.80;13.60;;;-0.70;99.90;;;;;;5031728;28;20029;-50
2023/01/18 09:21:53;;;;;;;27.83;14.67;;;-0.60;99.90;;;;;;5031907;28;20040;-48
2023/01/18 09:24:19;;;;;;;28.23;14.93;;;-0.50;99.90;;;;;;5031290;28;20057;-48
2023/01/18 09:26:47;;;;;;;34.43;15.60;;;-0.40;99.90;;;;;;5031460;28;20418;-49
2023/01/18 09:29:13;;;;;;;33.57;14.63;;;-0.40;99.90;;;;;;5031552;28;20100;-47
2023/01/18 09:31:39;;;;;;;30.43;14.53;;;-0.30;99.90;;;;;;5031270;28;20029;-48
2023/01/18 09:34:04;;;;;;;27.23;15.10;;;-0.20;99.90;;;;;;5031271;28;20455;-47
2023/01/18 09:36:30;;;;;;;28.07;14.37;;;-0.20;99.90;;;;;;5031161;28;20049;-49
2023/01/18 09:38:56;;;;;;;31.17;15.53;;;-0.20;99.90;;;;;;5030153;28;20072;-49
2023/01/18 09:41:22;;;;;;;28.97;15.57;;;-0.10;99.90;;;;;;5031378;28;20033;-49
2023/01/18 09:43:52;;;;;;;29.20;14.33;;;0.00;99.90;;;;;;5031061;28;20044;-48
2023/01/18 09:46:20;;;;;;;32.00;16.13;;;0.10;99.90;;;;;;5031018;28;20091;-46
2023/01/18 09:48:54;;;;;;;31.80;15.43;;;0.20;99.90;;;;;;5031147;28;20386;-49
2023/01/18 09:51:41;;;;;;;27.80;14.87;;;0.40;99.90;;;;;;5031254;28;20038;-50
2023/01/18 09:54:28;;;;;;;32.97;15.00;;;0.80;99.90;;;;;;5031074;28;20386;-51
2023/01/18 09:56:58;;;;;;;27.67;13.37;;;1.30;99.90;;;;;;5030874;28;20479;-46
2023/01/18 09:59:41;;;;;;;26.30;13.47;;;1.90;99.90;;;;;;5031237;28;20029;-46
2023/01/18 10:02:22;;;;;;;26.07;14.10;;;2.50;99.90;;;;;;5031093;28;20072;-47
2023/01/18 10:05:14;;;;;;;23.23;12.43;;;2.70;99.90;;;;;;5030780;28;20441;-47
2023/01/18 10:08:03;;;;;;;24.80;13.40;;;3.10;99.90;;;;;;5030894;28;20113;-46
2023/01/18 10:10:38;;;;;;;24.83;12.75;;;3.40;99.90;;;;;;5030993;28;20034;-45
2023/01/18 10:13:46;;;;;;;25.20;12.23;;;3.60;99.90;;;;;;5030989;28;20109;-49
2023/01/18 10:16:13;;;;;;;28.03;13.13;;;4.00;99.90;;;;;;5030912;28;20084;-45
2023/01/18 10:18:45;;;;;;;26.03;13.33;;;4.50;99.90;;;;;;5030767;28;20026;-50
2023/01/18 10:21:25;;;;;;;22.33;12.97;;;4.50;99.90;;;;;;5030766;28;20029;-45
2023/01/18 10:24:08;;;;;;;21.10;12.27;;;4.70;99.90;;;;;;5030479;28;20090;-50
2023/01/18 10:26:37;;;;;;;23.73;12.70;;;4.80;99.90;;;;;;5030767;28;20056;-46
2023/01/18 10:29:24;;;;;;;23.67;12.13;;;5.00;99.90;;;;;;5030741;28;20034;-46
2023/01/18 10:32:11;;;;;;;20.43;11.53;;;5.70;99.90;;;;;;5030641;28;20095;-49
2023/01/18 10:34:42;;;;;;;20.53;11.40;;;6.80;99.90;;;;;;5030407;28;20042;-49
2023/01/18 10:37:20;;;;;;;22.50;12.27;;;7.50;99.90;;;;;;5030445;28;20034;-49
2023/01/18 10:39:51;;;;;;;20.57;11.90;;;7.50;99.90;;;;;;5030558;28;20083;-45
2023/01/18 10:42:25;;;;;;;24.77;11.77;;;7.90;99.90;;;;;;5030592;28;20026;-47
2023/01/18 10:44:51;;;;;;;20.80;11.77;;;8.60;98.90;;;;;;5030378;28;20121;-47
2023/01/18 10:47:18;;;;;;;19.88;11.70;;;8.70;98.30;;;;;;5030335;28;20440;-51
2023/01/18 10:49:46;;;;;;;20.23;11.10;;;9.00;97.90;;;;;;5030310;28;20071;-50
2023/01/18 10:52:29;;;;;;;23.17;12.00;;;9.50;96.90;;;;;;5030263;28;20033;-49
2023/01/18 10:55:00;;;;;;;21.55;11.48;;;9.70;95.70;;;;;;5030147;28;20448;-49
2023/01/18 10:57:35;;;;;;;19.70;10.75;;;10.00;95.70;;;;;;5030071;28;20041;-47
2023/01/18 11:00:11;;;;;;;21.60;11.55;;;10.40;93.80;;;;;;5030078;28;20108;-47
2023/01/18 11:02:37;;;;;;;16.92;11.27;;;10.40;93.40;;;;;;5030175;28;20036;-49
2023/01/18 11:05:36;;;;;;;18.10;10.85;;;11.10;92.00;;;;;;5030130;28;20367;-52
2023/01/18 11:08:23;;;;;;;16.75;10.88;;;11.60;90.30;;;;;;5030307;28;20033;-50
2023/01/18 11:11:12;;;;;;;17.30;11.13;;;12.10;88.10;;;;;;5030061;28;20469;-47
2023/01/18 11:13:38;;;;;;;;;;;11.80;86.90;;;;;;5023292;28;20060;-49
2023/01/18 11:16:13;;;;;;;19.23;11.02;;;11.60;86.60;;;;;;5034091;28;20398;-47
2023/01/18 11:18:57;;;;;;;16.33;10.85;;;11.70;86.90;;;;;;5034062;28;20403;-47
2023/01/18 11:21:23;;;;;;;16.83;10.88;;;11.80;84.00;;;;;;5034121;28;20045;-48
2023/01/18 11:23:51;;;;;;;23.13;11.20;;;12.20;84.60;;;;;;5033688;28;20025;-47
2023/01/18 11:26:20;;;;;;;21.08;11.50;;;12.20;83.30;;;;;;5033876;28;20419;-46
2023/01/18 11:28:59;;;;;;;;;;;11.80;84.50;;;;;;5033208;28;20033;-49
2023/01/18 11:31:44;;;;;;;23.05;10.80;;;11.80;84.40;;;;;;5033723;28;20003;-47
2023/01/18 11:34:37;;;;;;;17.58;10.25;;;12.40;83.10;;;;;;5033596;28;20040;-51
2023/01/18 11:37:04;;;;;;;16.98;10.82;;;12.90;80.10;;;;;;5033615;28;20124;-46
2023/01/18 11:39:32;;;;;;;16.95;10.45;;;12.20;83.80;;;;;;5033926;28;20109;-46
2023/01/18 11:42:10;;;;;;;18.92;11.18;;;12.70;80.40;;;;;;5033823;28;20095;-46
2023/01/18 11:44:42;;;;;;;16.93;10.90;;;13.10;79.20;;;;;;5033524;28;20410;-48
2023/01/18 11:47:19;;;;;;;16.95;10.45;;;12.40;79.70;;;;;;5033293;28;20460;-51
2023/01/18 11:49:54;;;;;;;17.75;9.65;;;11.90;80.70;;;;;;5033657;28;20025;-50
2023/01/18 11:52:41;;;;;;;17.70;10.63;;;10.60;83.60;;;;;;5033484;28;20029;-47
2023/01/18 11:55:20;;;;;;;18.25;10.60;;;9.20;88.60;;;;;;5033342;28;20391;-45
2023/01/18 11:57:45;;;;;;;15.63;10.68;;;7.80;92.10;;;;;;5033229;28;20057;-48
2023/01/18 12:00:15;;;;;;;20.25;10.38;;;7.70;93.40;;;;;;5033292;28;20064;-45
2023/01/18 12:03:01;;;;;;;16.98;10.57;;;8.10;94.40;;;;;;5033274;28;20474;-47
2023/01/18 12:05:45;;;;;;;16.38;10.20;;;9.10;92.30;;;;;;5033095;28;20034;-49
2023/01/18 12:08:39;;;;;;;21.88;10.18;;;9.30;91.50;;;;;;5033274;28;20040;-45
2023/01/18 12:11:21;;;;;;;15.68;9.90;;;9.70;91.00;;;;;;5033241;28;20061;-46
2023/01/18 12:14:19;;;;;;;16.58;9.95;;;9.60;90.60;;;;;;5033379;28;20037;-51
2023/01/18 12:17:19;;;;;;;20.88;10.35;;;8.90;90.90;;;;;;5004181;28;20033;-51
2023/01/18 12:20:18;;;;;;;16.02;10.18;;;8.10;93.50;;;;;;5032921;28;20028;-49
2023/01/18 12:23:02;;;;;;;18.07;10.07;;;7.40;94.30;;;;;;5032640;28;20033;-45
2023/01/18 12:25:30;;;;;;;17.70;9.60;;;6.80;96.10;;;;;;5032018;28;20056;-50
2023/01/18 12:28:23;;;;;;;22.52;10.27;;;6.40;97.80;;;;;;5032696;28;20091;-46
2023/01/18 12:30:58;;;;;;;17.90;8.70;;;6.50;98.50;;;;;;5032698;28;20108;-47
2023/01/18 12:33:32;;;;;;;21.67;9.43;;;6.70;97.50;;;;;;5032293;28;20478;-47
2023/01/18 12:36:35;;;;;;;16.63;9.20;;;7.30;96.90;;;;;;5032908;28;20057;-46
2023/01/18 12:39:15;;;;;;;21.80;10.57;;;8.00;95.80;;;;;;4982393;28;20033;-46
2023/01/18 12:41:54;;;;;;;21.13;9.90;;;8.20;95.00;;;;;;5032559;28;20043;-47
2023/01/18 12:44:43;;;;;;;20.37;10.13;;;9.00;94.00;;;;;;5032433;28;20367;-49
2023/01/18 12:47:34;;;;;;;24.38;11.93;;;9.60;92.60;;;;;;5032200;28;20432;-47
2023/01/18 12:50:06;;;;;;;14.90;8.50;;;10.60;91.40;;;;;;5032396;28;20033;-50
2023/01/18 12:52:41;;;;;;;23.70;11.13;;;11.60;88.60;;;;;;5032375;28;20033;-49
2023/01/18 12:55:24;;;;;;;20.95;11.38;;;12.00;84.70;;;;;;5032380;28;20037;-48
2023/01/18 12:57:57;;;;;;;16.30;10.35;;;12.10;84.70;;;;;;5032094;28;20402;-51
2023/01/18 13:00:38;;;;;;;19.42;9.50;;;12.60;81.20;;;;;;5032189;28;20029;-49
2023/01/18 13:03:10;;;;;;;18.15;9.40;;;12.90;79.20;;;;;;5032233;28;20042;-49
2023/01/18 13:05:46;;;;;;;16.25;8.88;;;12.50;79.70;;;;;;5032059;28;20069;-47
2023/01/18 13:08:28;;;;;;;14.43;8.52;;;12.40;80.10;;;;;;5031965;28;20470;-46
2023/01/18 13:11:07;;;;;;;16.30;9.45;;;12.80;79.20;;;;;;5031960;28;20030;-49
2023/01/18 13:13:34;;;;;;;14.70;8.60;;;12.00;80.60;;;;;;5031730;28;20049;-46
2023/01/18 13:16:15;;;;;;;13.55;8.20;;;11.60;81.00;;;;;;5031901;28;20367;-48
2023/01/18 13:19:02;;;;;;;15.60;8.80;;;10.80;83.10;;;;;;5031597;28;20068;-47
2023/01/18 13:21:40;;;;;;;16.08;8.85;;;9.80;87.20;;;;;;5031823;28;20034;-47
2023/01/18 13:24:24;;;;;;;14.75;8.30;;;9.30;89.20;;;;;;5031403;28;20061;-52
2023/01/18 13:26:52;;;;;;;12.38;7.80;;;9.10;90.40;;;;;;5031431;28;20030;-45